sensor_id;sensor_type;location;lat;lon;timestamp;pressure;altitude;pressure_sealevel;temperature;humidity
62928;BME280;51070;52.236;-0.892;2022-10-31T00:01:55;100696.83;;;11.73;100.00
62928;BME280;51070;52.236;-0.892;2022-10-31T00:04:20;100701.35;;;11.73;100.00
62928;BME280;51070;52.236;-0.892;2022-10-31T00:06:46;100698.24;;;11.74;100.00
62928;BME280;51070;52.236;-0.892;2022-10-31T00:09:11;100697.58;;;11.74;100.00
62928;BME280;51070;52.236;-0.892;2022-10-31T00:11:37;100697.58;;;11.74;100.00
62928;BME280;51070;52.236;-0.892;2022-10-31T00:14:02;100694.30;;;11.75;100.00
62928;BME280;51070;52.236;-0.892;2022-10-31T00:16:29;100698.98;;;11.75;100.00
62928;BME280;51070;52.236;-0.892;2022-10-31T00:18:57;100698.45;;;11.74;100.00
62928;BME280;51070;52.236;-0.892;2022-10-31T00:21:24;100695.80;;;11.74;100.00
62928;BME280;51070;52.236;-0.892;2022-10-31T00:23:49;100698.41;;;11.73;100.00
62928;BME280;51070;52.236;-0.892;2022-10-31T00:26:15;100696.84;;;11.73;100.00
62928;BME280;51070;52.236;-0.892;2022-10-31T00:28:40;100695.11;;;11.73;100.00
62928;BME280;51070;52.236;-0.892;2022-10-31T00:31:08;100697.83;;;11.72;100.00
62928;BME280;51070;52.236;-0.892;2022-10-31T00:33:35;100697.48;;;11.72;100.00
62928;BME280;51070;52.236;-0.892;2022-10-31T00:36:03;100702.30;;;11.71;100.00
62928;BME280;51070;52.236;-0.892;2022-10-31T00:38:29;100701.25;;;11.71;100.00
62928;BME280;51070;52.236;-0.892;2022-10-31T00:40:54;100705.23;;;11.71;100.00
62928;BME280;51070;52.236;-0.892;2022-10-31T00:43:20;100701.91;;;11.70;100.00
62928;BME280;51070;52.236;-0.892;2022-10-31T00:45:45;100699.45;;;11.69;100.00
62928;BME280;51070;52.236;-0.892;2022-10-31T00:48:11;100695.06;;;11.67;100.00
62928;BME280;51070;52.236;-0.892;2022-10-31T00:50:36;100692.79;;;11.65;100.00
62928;BME280;51070;52.236;-0.892;2022-10-31T00:53:02;100691.39;;;11.64;100.00
62928;BME280;51070;52.236;-0.892;2022-10-31T00:55:28;100689.25;;;11.63;100.00
62928;BME280;51070;52.236;-0.892;2022-10-31T00:57:53;100683.32;;;11.61;100.00
62928;BME280;51070;52.236;-0.892;2022-10-31T01:00:19;100677.95;;;11.60;100.00
62928;BME280;51070;52.236;-0.892;2022-10-31T01:02:44;100680.71;;;11.61;100.00
62928;BME280;51070;52.236;-0.892;2022-10-31T01:05:10;100689.75;;;11.62;100.00
62928;BME280;51070;52.236;-0.892;2022-10-31T01:07:37;100688.72;;;11.62;100.00
62928;BME280;51070;52.236;-0.892;2022-10-31T01:10:03;100689.41;;;11.62;100.00
62928;BME280;51070;52.236;-0.892;2022-10-31T01:12:29;100687.91;;;11.64;100.00
62928;BME280;51070;52.236;-0.892;2022-10-31T01:14:54;100686.91;;;11.65;100.00
62928;BME280;51070;52.236;-0.892;2022-10-31T01:17:19;100682.42;;;11.66;100.00
62928;BME280;51070;52.236;-0.892;2022-10-31T01:19:45;100682.95;;;11.67;100.00
62928;BME280;51070;52.236;-0.892;2022-10-31T01:22:10;100680.55;;;11.68;100.00
62928;BME280;51070;52.236;-0.892;2022-10-31T01:24:36;100684.91;;;11.68;100.00
62928;BME280;51070;52.236;-0.892;2022-10-31T01:27:02;100678.73;;;11.70;100.00
62928;BME280;51070;52.236;-0.892;2022-10-31T01:29:28;100685.55;;;11.72;100.00
62928;BME280;51070;52.236;-0.892;2022-10-31T01:31:53;100685.08;;;11.74;100.00
62928;BME280;51070;52.236;-0.892;2022-10-31T01:34:18;100685.63;;;11.75;100.00
62928;BME280;51070;52.236;-0.892;2022-10-31T01:36:45;100687.58;;;11.76;100.00
62928;BME280;51070;52.236;-0.892;2022-10-31T01:39:14;100690.55;;;11.77;100.00
62928;BME280;51070;52.236;-0.892;2022-10-31T01:41:43;100694.01;;;11.77;100.00
62928;BME280;51070;52.236;-0.892;2022-10-31T01:49:31;100683.01;;;11.80;100.00
62928;BME280;51070;52.236;-0.892;2022-10-31T01:52:10;100683.92;;;11.82;100.00
62928;BME280;51070;52.236;-0.892;2022-10-31T01:54:38;100681.16;;;11.82;100.00
62928;BME280;51070;52.236;-0.892;2022-10-31T01:57:07;100681.34;;;11.82;100.00
62928;BME280;51070;52.236;-0.892;2022-10-31T01:59:35;100677.52;;;11.83;100.00
62928;BME280;51070;52.236;-0.892;2022-10-31T02:02:03;100678.39;;;11.83;100.00
62928;BME280;51070;52.236;-0.892;2022-10-31T02:04:29;100674.06;;;11.83;100.00
62928;BME280;51070;52.236;-0.892;2022-10-31T02:07:02;100670.11;;;11.84;100.00
62928;BME280;51070;52.236;-0.892;2022-10-31T02:09:29;100667.89;;;11.85;100.00
62928;BME280;51070;52.236;-0.892;2022-10-31T02:11:57;100668.09;;;11.86;100.00
62928;BME280;51070;52.236;-0.892;2022-10-31T02:14:25;100672.09;;;11.86;100.00
62928;BME280;51070;52.236;-0.892;2022-10-31T02:16:53;100676.44;;;11.87;100.00
62928;BME280;51070;52.236;-0.892;2022-10-31T02:19:51;100680.56;;;11.86;100.00
62928;BME280;51070;52.236;-0.892;2022-10-31T02:22:37;100675.55;;;11.86;100.00
62928;BME280;51070;52.236;-0.892;2022-10-31T02:33:37;100678.17;;;11.81;100.00
62928;BME280;51070;52.236;-0.892;2022-10-31T02:36:27;100671.68;;;11.78;100.00
62928;BME280;51070;52.236;-0.892;2022-10-31T02:39:11;100674.92;;;11.75;100.00
62928;BME280;51070;52.236;-0.892;2022-10-31T02:42:03;100672.09;;;11.73;100.00
62928;BME280;51070;52.236;-0.892;2022-10-31T02:47:17;100671.48;;;11.72;100.00
62928;BME280;51070;52.236;-0.892;2022-10-31T02:52:34;100667.95;;;11.68;100.00
62928;BME280;51070;52.236;-0.892;2022-10-31T02:58:04;100660.70;;;11.63;100.00
62928;BME280;51070;52.236;-0.892;2022-10-31T03:00:37;100661.15;;;11.60;100.00
62928;BME280;51070;52.236;-0.892;2022-10-31T03:05:52;100660.02;;;11.57;100.00
62928;BME280;51070;52.236;-0.892;2022-10-31T03:08:24;100661.54;;;11.56;100.00
62928;BME280;51070;52.236;-0.892;2022-10-31T03:10:55;100661.51;;;11.54;100.00
62928;BME280;51070;52.236;-0.892;2022-10-31T03:15:51;100655.20;;;11.52;100.00
62928;BME280;51070;52.236;-0.892;2022-10-31T03:18:32;100654.30;;;11.51;100.00
62928;BME280;51070;52.236;-0.892;2022-10-31T03:23:37;100659.29;;;11.49;100.00
62928;BME280;51070;52.236;-0.892;2022-10-31T03:26:06;100663.63;;;11.50;100.00
62928;BME280;51070;52.236;-0.892;2022-10-31T03:28:47;100659.98;;;11.49;100.00
62928;BME280;51070;52.236;-0.892;2022-10-31T03:31:17;100654.21;;;11.47;100.00
62928;BME280;51070;52.236;-0.892;2022-10-31T03:33:44;100652.46;;;11.47;100.00
62928;BME280;51070;52.236;-0.892;2022-10-31T03:36:11;100646.90;;;11.46;100.00
62928;BME280;51070;52.236;-0.892;2022-10-31T03:38:41;100647.42;;;11.46;100.00
62928;BME280;51070;52.236;-0.892;2022-10-31T03:41:11;100640.45;;;11.45;100.00
62928;BME280;51070;52.236;-0.892;2022-10-31T03:43:42;100645.45;;;11.43;100.00
62928;BME280;51070;52.236;-0.892;2022-10-31T03:46:12;100646.80;;;11.42;100.00
62928;BME280;51070;52.236;-0.892;2022-10-31T03:48:38;100649.73;;;11.42;100.00
62928;BME280;51070;52.236;-0.892;2022-10-31T03:51:14;100651.79;;;11.41;100.00
62928;BME280;51070;52.236;-0.892;2022-10-31T03:54:31;100649.67;;;11.40;100.00
62928;BME280;51070;52.236;-0.892;2022-10-31T03:56:57;100644.64;;;11.39;100.00
62928;BME280;51070;52.236;-0.892;2022-10-31T03:59:32;100644.45;;;11.38;100.00
62928;BME280;51070;52.236;-0.892;2022-10-31T04:02:02;100643.35;;;11.36;100.00
62928;BME280;51070;52.236;-0.892;2022-10-31T04:04:30;100641.78;;;11.35;100.00
62928;BME280;51070;52.236;-0.892;2022-10-31T04:06:59;100641.58;;;11.35;100.00
62928;BME280;51070;52.236;-0.892;2022-10-31T04:09:27;100640.17;;;11.34;100.00
62928;BME280;51070;52.236;-0.892;2022-10-31T04:11:57;100643.76;;;11.32;100.00
62928;BME280;51070;52.236;-0.892;2022-10-31T04:14:27;100643.71;;;11.30;100.00
62928;BME280;51070;52.236;-0.892;2022-10-31T04:16:55;100647.50;;;11.29;100.00
62928;BME280;51070;52.236;-0.892;2022-10-31T04:19:20;100645.01;;;11.27;100.00
62928;BME280;51070;52.236;-0.892;2022-10-31T04:21:46;100645.50;;;11.26;100.00
62928;BME280;51070;52.236;-0.892;2022-10-31T04:24:14;100643.39;;;11.25;100.00
62928;BME280;51070;52.236;-0.892;2022-10-31T04:26:40;100636.80;;;11.24;100.00
62928;BME280;51070;52.236;-0.892;2022-10-31T04:29:05;100630.16;;;11.22;100.00
62928;BME280;51070;52.236;-0.892;2022-10-31T04:31:30;100622.86;;;11.21;100.00
62928;BME280;51070;52.236;-0.892;2022-10-31T04:33:56;100631.85;;;11.21;100.00
62928;BME280;51070;52.236;-0.892;2022-10-31T04:36:21;100634.95;;;11.20;100.00
62928;BME280;51070;52.236;-0.892;2022-10-31T04:38:46;100636.66;;;11.20;100.00
62928;BME280;51070;52.236;-0.892;2022-10-31T04:41:12;100637.50;;;11.19;100.00
62928;BME280;51070;52.236;-0.892;2022-10-31T04:43:37;100634.56;;;11.19;100.00
62928;BME280;51070;52.236;-0.892;2022-10-31T04:46:03;100635.61;;;11.19;100.00
62928;BME280;51070;52.236;-0.892;2022-10-31T04:48:29;100632.29;;;11.18;100.00
62928;BME280;51070;52.236;-0.892;2022-10-31T04:50:59;100632.63;;;11.18;100.00
62928;BME280;51070;52.236;-0.892;2022-10-31T04:53:26;100630.38;;;11.17;100.00
62928;BME280;51070;52.236;-0.892;2022-10-31T04:55:51;100626.54;;;11.16;100.00
62928;BME280;51070;52.236;-0.892;2022-10-31T04:58:17;100622.55;;;11.16;100.00
62928;BME280;51070;52.236;-0.892;2022-10-31T05:00:42;100615.58;;;11.14;100.00
62928;BME280;51070;52.236;-0.892;2022-10-31T05:03:07;100612.44;;;11.13;100.00
62928;BME280;51070;52.236;-0.892;2022-10-31T05:05:33;100612.73;;;11.12;100.00
62928;BME280;51070;52.236;-0.892;2022-10-31T05:07:58;100615.45;;;11.10;100.00
62928;BME280;51070;52.236;-0.892;2022-10-31T05:10:26;100609.85;;;11.08;100.00
62928;BME280;51070;52.236;-0.892;2022-10-31T05:13:02;100606.70;;;11.06;100.00
62928;BME280;51070;52.236;-0.892;2022-10-31T05:15:28;100604.78;;;11.06;100.00
62928;BME280;51070;52.236;-0.892;2022-10-31T05:17:54;100599.58;;;11.05;100.00
62928;BME280;51070;52.236;-0.892;2022-10-31T05:20:23;100602.15;;;11.04;100.00
62928;BME280;51070;52.236;-0.892;2022-10-31T05:22:51;100604.58;;;11.04;100.00
62928;BME280;51070;52.236;-0.892;2022-10-31T05:25:18;100603.54;;;11.04;100.00
62928;BME280;51070;52.236;-0.892;2022-10-31T05:27:45;100603.71;;;11.04;100.00
62928;BME280;51070;52.236;-0.892;2022-10-31T05:30:13;100602.52;;;11.05;100.00
62928;BME280;51070;52.236;-0.892;2022-10-31T05:32:44;100604.95;;;11.05;100.00
62928;BME280;51070;52.236;-0.892;2022-10-31T05:35:16;100604.08;;;11.05;100.00
62928;BME280;51070;52.236;-0.892;2022-10-31T05:37:42;100603.02;;;11.04;100.00
62928;BME280;51070;52.236;-0.892;2022-10-31T05:40:10;100602.82;;;11.04;100.00
62928;BME280;51070;52.236;-0.892;2022-10-31T05:42:38;100599.68;;;11.03;100.00
62928;BME280;51070;52.236;-0.892;2022-10-31T05:45:04;100596.73;;;11.02;100.00
62928;BME280;51070;52.236;-0.892;2022-10-31T05:47:29;100598.26;;;11.01;100.00
62928;BME280;51070;52.236;-0.892;2022-10-31T05:49:55;100594.76;;;11.00;100.00
62928;BME280;51070;52.236;-0.892;2022-10-31T05:52:20;100595.04;;;10.98;100.00
62928;BME280;51070;52.236;-0.892;2022-10-31T05:54:45;100594.13;;;10.96;100.00
62928;BME280;51070;52.236;-0.892;2022-10-31T05:57:11;100591.88;;;10.95;100.00
62928;BME280;51070;52.236;-0.892;2022-10-31T05:59:36;100589.28;;;10.95;100.00
62928;BME280;51070;52.236;-0.892;2022-10-31T06:02:02;100589.46;;;10.96;100.00
62928;BME280;51070;52.236;-0.892;2022-10-31T06:04:27;100585.83;;;10.96;100.00
62928;BME280;51070;52.236;-0.892;2022-10-31T06:06:53;100586.50;;;10.95;100.00
62928;BME280;51070;52.236;-0.892;2022-10-31T06:09:19;100581.86;;;10.96;100.00
62928;BME280;51070;52.236;-0.892;2022-10-31T06:11:44;100578.57;;;10.96;100.00
62928;BME280;51070;52.236;-0.892;2022-10-31T06:14:10;100574.08;;;10.96;100.00
62928;BME280;51070;52.236;-0.892;2022-10-31T06:16:35;100572.69;;;10.96;100.00
62928;BME280;51070;52.236;-0.892;2022-10-31T06:19:00;100572.70;;;10.96;100.00
62928;BME280;51070;52.236;-0.892;2022-10-31T06:21:26;100570.27;;;10.97;100.00
62928;BME280;51070;52.236;-0.892;2022-10-31T06:23:51;100566.48;;;10.96;100.00
62928;BME280;51070;52.236;-0.892;2022-10-31T06:26:16;100575.81;;;10.97;100.00
62928;BME280;51070;52.236;-0.892;2022-10-31T06:28:42;100575.50;;;10.98;100.00
62928;BME280;51070;52.236;-0.892;2022-10-31T06:31:08;100572.22;;;10.98;100.00
62928;BME280;51070;52.236;-0.892;2022-10-31T06:33:33;100570.16;;;10.98;100.00
62928;BME280;51070;52.236;-0.892;2022-10-31T06:35:59;100566.69;;;10.98;100.00
62928;BME280;51070;52.236;-0.892;2022-10-31T06:38:25;100564.61;;;10.98;100.00
62928;BME280;51070;52.236;-0.892;2022-10-31T06:40:51;100558.23;;;10.98;100.00
62928;BME280;51070;52.236;-0.892;2022-10-31T06:43:17;100563.86;;;11.01;100.00
62928;BME280;51070;52.236;-0.892;2022-10-31T06:45:42;100561.27;;;11.02;100.00
62928;BME280;51070;52.236;-0.892;2022-10-31T06:48:08;100559.26;;;11.04;100.00
62928;BME280;51070;52.236;-0.892;2022-10-31T06:50:33;100553.98;;;11.06;100.00
62928;BME280;51070;52.236;-0.892;2022-10-31T06:52:58;100555.05;;;11.09;100.00
62928;BME280;51070;52.236;-0.892;2022-10-31T06:55:25;100558.21;;;11.10;100.00
62928;BME280;51070;52.236;-0.892;2022-10-31T06:57:52;100558.09;;;11.12;100.00
62928;BME280;51070;52.236;-0.892;2022-10-31T07:00:18;100556.02;;;11.12;100.00
62928;BME280;51070;52.236;-0.892;2022-10-31T07:02:56;100555.34;;;11.13;100.00
62928;BME280;51070;52.236;-0.892;2022-10-31T07:05:22;100552.98;;;11.15;100.00
62928;BME280;51070;52.236;-0.892;2022-10-31T07:07:52;100552.35;;;11.16;100.00
62928;BME280;51070;52.236;-0.892;2022-10-31T07:10:17;100549.98;;;11.19;100.00
62928;BME280;51070;52.236;-0.892;2022-10-31T07:12:43;100546.26;;;11.21;100.00
62928;BME280;51070;52.236;-0.892;2022-10-31T07:15:08;100543.90;;;11.24;100.00
62928;BME280;51070;52.236;-0.892;2022-10-31T07:17:34;100542.27;;;11.27;100.00
62928;BME280;51070;52.236;-0.892;2022-10-31T07:19:59;100544.09;;;11.31;100.00
62928;BME280;51070;52.236;-0.892;2022-10-31T07:22:32;100546.11;;;11.36;100.00
62928;BME280;51070;52.236;-0.892;2022-10-31T07:24:57;100543.45;;;11.40;100.00
62928;BME280;51070;52.236;-0.892;2022-10-31T07:27:23;100550.98;;;11.43;100.00
62928;BME280;51070;52.236;-0.892;2022-10-31T07:29:48;100552.09;;;11.46;100.00
62928;BME280;51070;52.236;-0.892;2022-10-31T07:32:13;100550.10;;;11.50;100.00
62928;BME280;51070;52.236;-0.892;2022-10-31T07:34:39;100550.86;;;11.52;100.00
62928;BME280;51070;52.236;-0.892;2022-10-31T07:37:04;100556.11;;;11.54;100.00
62928;BME280;51070;52.236;-0.892;2022-10-31T07:39:29;100559.42;;;11.55;100.00
62928;BME280;51070;52.236;-0.892;2022-10-31T07:41:58;100565.38;;;11.58;100.00
62928;BME280;51070;52.236;-0.892;2022-10-31T07:44:23;100567.70;;;11.61;100.00
62928;BME280;51070;52.236;-0.892;2022-10-31T07:46:49;100568.16;;;11.66;100.00
62928;BME280;51070;52.236;-0.892;2022-10-31T07:49:14;100574.67;;;11.70;100.00
62928;BME280;51070;52.236;-0.892;2022-10-31T07:51:39;100564.12;;;11.75;100.00
62928;BME280;51070;52.236;-0.892;2022-10-31T07:54:05;100557.02;;;11.82;100.00
62928;BME280;51070;52.236;-0.892;2022-10-31T07:56:30;100557.73;;;11.90;100.00
62928;BME280;51070;52.236;-0.892;2022-10-31T07:58:55;100560.86;;;11.98;100.00
62928;BME280;51070;52.236;-0.892;2022-10-31T08:01:21;100561.87;;;12.04;100.00
62928;BME280;51070;52.236;-0.892;2022-10-31T08:03:46;100557.46;;;12.08;100.00
62928;BME280;51070;52.236;-0.892;2022-10-31T08:06:11;100557.33;;;12.09;100.00
62928;BME280;51070;52.236;-0.892;2022-10-31T08:08:37;100562.59;;;12.12;100.00
62928;BME280;51070;52.236;-0.892;2022-10-31T08:11:02;100569.77;;;12.15;100.00
62928;BME280;51070;52.236;-0.892;2022-10-31T08:13:28;100575.37;;;12.18;100.00
62928;BME280;51070;52.236;-0.892;2022-10-31T08:15:53;100573.17;;;12.20;100.00
62928;BME280;51070;52.236;-0.892;2022-10-31T08:18:19;100566.15;;;12.24;100.00
62928;BME280;51070;52.236;-0.892;2022-10-31T08:20:47;100566.24;;;12.28;100.00
62928;BME280;51070;52.236;-0.892;2022-10-31T08:23:12;100565.48;;;12.33;100.00
62928;BME280;51070;52.236;-0.892;2022-10-31T08:25:39;100563.52;;;12.38;100.00
62928;BME280;51070;52.236;-0.892;2022-10-31T08:28:05;100561.11;;;12.46;100.00
62928;BME280;51070;52.236;-0.892;2022-10-31T08:30:33;100564.65;;;12.58;100.00
62928;BME280;51070;52.236;-0.892;2022-10-31T08:35:29;100558.71;;;12.80;100.00
62928;BME280;51070;52.236;-0.892;2022-10-31T08:37:56;100556.16;;;12.83;100.00
62928;BME280;51070;52.236;-0.892;2022-10-31T08:40:22;100553.80;;;12.86;100.00
62928;BME280;51070;52.236;-0.892;2022-10-31T08:42:55;100555.29;;;12.91;100.00
62928;BME280;51070;52.236;-0.892;2022-10-31T08:45:21;100554.33;;;13.04;100.00
62928;BME280;51070;52.236;-0.892;2022-10-31T08:47:47;100553.27;;;13.11;100.00
62928;BME280;51070;52.236;-0.892;2022-10-31T08:50:12;100546.08;;;13.15;100.00
62928;BME280;51070;52.236;-0.892;2022-10-31T08:52:37;100544.40;;;13.28;100.00
62928;BME280;51070;52.236;-0.892;2022-10-31T08:55:03;100539.46;;;13.32;100.00
62928;BME280;51070;52.236;-0.892;2022-10-31T08:57:29;100544.50;;;13.33;100.00
62928;BME280;51070;52.236;-0.892;2022-10-31T08:59:54;100544.67;;;13.34;100.00
62928;BME280;51070;52.236;-0.892;2022-10-31T09:02:20;100540.10;;;13.39;100.00
62928;BME280;51070;52.236;-0.892;2022-10-31T09:04:45;100541.46;;;13.47;100.00
62928;BME280;51070;52.236;-0.892;2022-10-31T09:07:11;100539.08;;;13.50;100.00
62928;BME280;51070;52.236;-0.892;2022-10-31T09:09:36;100542.11;;;13.55;100.00
62928;BME280;51070;52.236;-0.892;2022-10-31T09:12:02;100537.95;;;13.56;99.99
62928;BME280;51070;52.236;-0.892;2022-10-31T09:14:27;100538.64;;;13.55;99.87
62928;BME280;51070;52.236;-0.892;2022-10-31T09:16:53;100534.44;;;13.53;99.77
62928;BME280;51070;52.236;-0.892;2022-10-31T09:19:18;100533.77;;;13.55;99.98
62928;BME280;51070;52.236;-0.892;2022-10-31T09:21:43;100530.77;;;13.62;99.89
62928;BME280;51070;52.236;-0.892;2022-10-31T09:24:10;100529.70;;;13.70;99.95
62928;BME280;51070;52.236;-0.892;2022-10-31T09:26:35;100526.70;;;13.78;99.76
62928;BME280;51070;52.236;-0.892;2022-10-31T09:29:00;100521.83;;;13.88;99.25
62928;BME280;51070;52.236;-0.892;2022-10-31T09:31:27;100521.11;;;13.98;98.62
62928;BME280;51070;52.236;-0.892;2022-10-31T09:33:53;100516.87;;;14.05;98.42
62928;BME280;51070;52.236;-0.892;2022-10-31T09:36:19;100509.98;;;14.09;97.32
62928;BME280;51070;52.236;-0.892;2022-10-31T09:38:44;100505.41;;;14.18;97.02
62928;BME280;51070;52.236;-0.892;2022-10-31T09:41:19;100504.08;;;14.34;96.57
62928;BME280;51070;52.236;-0.892;2022-10-31T09:44:04;100508.12;;;14.49;95.86
62928;BME280;51070;52.236;-0.892;2022-10-31T09:51:50;100492.94;;;14.88;93.67
62928;BME280;51070;52.236;-0.892;2022-10-31T09:54:25;100489.23;;;14.97;91.97
62928;BME280;51070;52.236;-0.892;2022-10-31T09:56:52;100482.73;;;14.92;91.02
62928;BME280;51070;52.236;-0.892;2022-10-31T10:05:05;100474.63;;;14.84;92.02
62928;BME280;51070;52.236;-0.892;2022-10-31T10:07:44;100475.60;;;14.93;90.37
62928;BME280;51070;52.236;-0.892;2022-10-31T10:11:01;100475.70;;;15.04;90.30
62928;BME280;51070;52.236;-0.892;2022-10-31T10:19:09;100467.84;;;16.04;86.65
62928;BME280;51070;52.236;-0.892;2022-10-31T10:30:46;100461.64;;;15.87;83.06
62928;BME280;51070;52.236;-0.892;2022-10-31T10:33:20;100458.61;;;16.04;82.81
62928;BME280;51070;52.236;-0.892;2022-10-31T10:40:52;100452.16;;;16.77;79.84
62928;BME280;51070;52.236;-0.892;2022-10-31T10:43:26;100448.34;;;16.87;77.66
62928;BME280;51070;52.236;-0.892;2022-10-31T10:52:34;100441.17;;;16.40;79.27
62928;BME280;51070;52.236;-0.892;2022-10-31T10:55:09;100442.67;;;16.26;79.82
62928;BME280;51070;52.236;-0.892;2022-10-31T10:58:02;100443.57;;;16.27;79.73
62928;BME280;51070;52.236;-0.892;2022-10-31T11:00:40;100433.16;;;16.45;78.60
62928;BME280;51070;52.236;-0.892;2022-10-31T11:03:06;100426.56;;;16.48;78.54
62928;BME280;51070;52.236;-0.892;2022-10-31T11:08:09;100427.58;;;16.38;76.84
62928;BME280;51070;52.236;-0.892;2022-10-31T11:10:35;100430.17;;;16.35;76.65
62928;BME280;51070;52.236;-0.892;2022-10-31T11:16:00;100420.56;;;16.31;77.83
62928;BME280;51070;52.236;-0.892;2022-10-31T11:18:30;100410.38;;;16.56;77.74
62928;BME280;51070;52.236;-0.892;2022-10-31T11:20:58;100397.70;;;16.70;75.58
62928;BME280;51070;52.236;-0.892;2022-10-31T11:23:26;100392.48;;;16.86;74.64
62928;BME280;51070;52.236;-0.892;2022-10-31T11:26:01;100387.09;;;16.99;72.08
62928;BME280;51070;52.236;-0.892;2022-10-31T11:28:28;100388.66;;;17.02;72.37
62928;BME280;51070;52.236;-0.892;2022-10-31T11:30:55;100387.43;;;16.93;71.46
62928;BME280;51070;52.236;-0.892;2022-10-31T11:33:24;100388.48;;;16.86;72.13
62928;BME280;51070;52.236;-0.892;2022-10-31T11:35:52;100384.98;;;16.84;72.11
62928;BME280;51070;52.236;-0.892;2022-10-31T11:38:20;100375.55;;;16.90;71.94
62928;BME280;51070;52.236;-0.892;2022-10-31T11:41:16;100370.34;;;17.01;72.05
62928;BME280;51070;52.236;-0.892;2022-10-31T11:43:50;100367.36;;;16.95;73.04
62928;BME280;51070;52.236;-0.892;2022-10-31T11:46:21;100363.70;;;17.05;71.93
62928;BME280;51070;52.236;-0.892;2022-10-31T11:48:51;100363.01;;;16.99;71.69
62928;BME280;51070;52.236;-0.892;2022-10-31T11:51:26;100368.06;;;16.86;72.06
62928;BME280;51070;52.236;-0.892;2022-10-31T11:53:57;100359.14;;;16.72;71.70
62928;BME280;51070;52.236;-0.892;2022-10-31T11:56:23;100355.64;;;16.64;72.47
62928;BME280;51070;52.236;-0.892;2022-10-31T11:59:02;100355.25;;;16.57;72.93
62928;BME280;51070;52.236;-0.892;2022-10-31T12:01:31;100351.55;;;16.46;73.20
62928;BME280;51070;52.236;-0.892;2022-10-31T12:04:07;100346.65;;;16.39;73.60
62928;BME280;51070;52.236;-0.892;2022-10-31T12:06:35;100335.73;;;16.59;74.40
62928;BME280;51070;52.236;-0.892;2022-10-31T12:09:02;100325.65;;;16.74;74.28
62928;BME280;51070;52.236;-0.892;2022-10-31T12:14:22;100315.52;;;16.94;73.25
62928;BME280;51070;52.236;-0.892;2022-10-31T12:19:38;100305.22;;;17.08;72.28
62928;BME280;51070;52.236;-0.892;2022-10-31T12:27:34;100291.61;;;16.91;68.17
62928;BME280;51070;52.236;-0.892;2022-10-31T12:33:02;100296.15;;;16.75;68.83
62928;BME280;51070;52.236;-0.892;2022-10-31T12:36:07;100287.76;;;16.60;68.87
62928;BME280;51070;52.236;-0.892;2022-10-31T12:38:45;100284.42;;;16.55;69.72
62928;BME280;51070;52.236;-0.892;2022-10-31T12:41:57;100275.69;;;16.56;70.08
62928;BME280;51070;52.236;-0.892;2022-10-31T12:58:47;100236.05;;;16.11;72.15
62928;BME280;51070;52.236;-0.892;2022-10-31T13:01:24;100238.14;;;16.14;71.79
62928;BME280;51070;52.236;-0.892;2022-10-31T13:04:02;100234.67;;;16.20;71.97
62928;BME280;51070;52.236;-0.892;2022-10-31T13:06:42;100227.70;;;16.25;72.03
62928;BME280;51070;52.236;-0.892;2022-10-31T13:09:13;100214.13;;;16.31;71.82
62928;BME280;51070;52.236;-0.892;2022-10-31T13:11:53;100209.24;;;16.40;71.82
62928;BME280;51070;52.236;-0.892;2022-10-31T13:14:44;100200.67;;;16.42;71.15
62928;BME280;51070;52.236;-0.892;2022-10-31T13:17:36;100192.33;;;16.40;71.06
62928;BME280;51070;52.236;-0.892;2022-10-31T13:20:23;100183.77;;;16.35;70.12
62928;BME280;51070;52.236;-0.892;2022-10-31T13:22:54;100175.77;;;16.26;70.59
62928;BME280;51070;52.236;-0.892;2022-10-31T13:25:28;100175.74;;;16.22;71.47
62928;BME280;51070;52.236;-0.892;2022-10-31T13:30:43;100175.75;;;16.13;72.10
62928;BME280;51070;52.236;-0.892;2022-10-31T13:33:33;100167.37;;;16.10;72.33
62928;BME280;51070;52.236;-0.892;2022-10-31T13:44:24;100136.34;;;15.86;71.24
62928;BME280;51070;52.236;-0.892;2022-10-31T13:46:54;100133.89;;;15.85;71.16
62928;BME280;51070;52.236;-0.892;2022-10-31T13:54:54;100114.39;;;15.93;71.32
62928;BME280;51070;52.236;-0.892;2022-10-31T14:00:45;100105.33;;;16.13;71.47
62928;BME280;51070;52.236;-0.892;2022-10-31T14:02:48;100100.45;;;16.21;70.96
62928;BME280;51070;52.236;-0.892;2022-10-31T14:05:26;100096.61;;;16.24;70.94
62928;BME280;51070;52.236;-0.892;2022-10-31T14:07:54;100089.63;;;16.31;71.35
62928;BME280;51070;52.236;-0.892;2022-10-31T14:12:52;100077.90;;;16.62;70.56
62928;BME280;51070;52.236;-0.892;2022-10-31T14:15:22;100077.38;;;16.69;70.53
62928;BME280;51070;52.236;-0.892;2022-10-31T14:18:01;100074.05;;;16.71;69.58
62928;BME280;51070;52.236;-0.892;2022-10-31T14:22:58;100061.34;;;16.65;69.38
62928;BME280;51070;52.236;-0.892;2022-10-31T14:25:35;100052.80;;;16.62;69.83
62928;BME280;51070;52.236;-0.892;2022-10-31T14:28:34;100047.91;;;16.62;69.75
62928;BME280;51070;52.236;-0.892;2022-10-31T14:31:00;100048.60;;;16.55;69.31
62928;BME280;51070;52.236;-0.892;2022-10-31T14:33:28;100041.81;;;16.50;69.64
62928;BME280;51070;52.236;-0.892;2022-10-31T14:36:11;100042.16;;;16.50;69.38
62928;BME280;51070;52.236;-0.892;2022-10-31T14:44:24;100027.22;;;16.21;69.95
62928;BME280;51070;52.236;-0.892;2022-10-31T14:47:04;100025.14;;;16.18;70.29
62928;BME280;51070;52.236;-0.892;2022-10-31T14:52:02;100012.23;;;16.14;70.72
62928;BME280;51070;52.236;-0.892;2022-10-31T14:54:38;100007.02;;;16.16;70.91
62928;BME280;51070;52.236;-0.892;2022-10-31T14:57:08;100005.61;;;16.16;71.01
62928;BME280;51070;52.236;-0.892;2022-10-31T14:59:48;100001.80;;;16.14;71.39
62928;BME280;51070;52.236;-0.892;2022-10-31T15:02:29;99992.02;;;16.10;71.71